Time;durP1;ratioP1;P1;durP2;ratioP2;P2;SDS_P1;SDS_P2;PMS_P1;PMS_P2;Temp;Humidity;BMP_temperature;BMP_pressure;BME280_temperature;BME280_humidity;BME280_pressure;Samples;Min_cycle;Max_cycle;Signal;HPM_P1;HPM_P2
2022/12/06 00:01:50;;;;;;;;;49.00;37.00;;;;;;;;5042133;28;45834;-67
2022/12/06 00:04:15;;;;;;;;;41.00;34.25;;;;;;;;5036561;28;45822;-67
2022/12/06 00:06:42;;;;;;;;;48.75;35.75;;;;;;;;5044826;28;45303;-71
2022/12/06 00:09:08;;;;;;;;;44.75;34.25;;;;;;;;5051357;28;45475;-67
2022/12/06 00:11:34;;;;;;;;;39.25;27.50;;;;;;;;5034319;28;46505;-68
2022/12/06 00:14:01;;;;;;;;;46.00;35.00;;;;;;;;5051691;28;45339;-69
2022/12/06 00:16:26;;;;;;;;;36.50;32.50;;;;;;;;5052030;28;45318;-71
2022/12/06 00:18:52;;;;;;;;;41.75;34.25;;;;;;;;5051941;28;45314;-72
2022/12/06 00:21:17;;;;;;;;;43.25;33.75;;;;;;;;5033642;28;47464;-68
2022/12/06 00:23:46;;;;;;;;;47.50;34.75;;;;;;;;5051926;28;45381;-69
2022/12/06 00:26:12;;;;;;;;;42.75;33.25;;;;;;;;5051303;28;45413;-68
2022/12/06 00:28:37;;;;;;;;;38.00;32.25;;;;;;;;5043421;28;45492;-67
2022/12/06 00:31:04;;;;;;;;;46.25;34.50;;;;;;;;5034060;28;45713;-67
2022/12/06 00:33:29;;;;;;;;;41.50;34.00;;;;;;;;5051773;28;45669;-69
2022/12/06 00:36:00;;;;;;;;;41.00;35.00;;;;;;;;5044937;28;45799;-68
2022/12/06 00:38:26;;;;;;;;;49.75;35.50;;;;;;;;5050720;28;46009;-67
2022/12/06 00:41:05;;;;;;;;;38.25;34.75;;;;;;;;5044926;28;45682;-67
2022/12/06 00:43:31;;;;;;;;;42.00;33.25;;;;;;;;5042355;28;45788;-67
2022/12/06 00:45:56;;;;;;;;;43.25;32.00;;;;;;;;5049313;28;45355;-67
2022/12/06 00:48:21;;;;;;;;;47.75;37.25;;;;;;;;5050484;28;45432;-67
2022/12/06 00:50:47;;;;;;;;;35.00;30.25;;;;;;;;5029251;28;46990;-67
2022/12/06 00:53:12;;;;;;;;;35.75;32.00;;;;;;;;5055967;28;45724;-68
2022/12/06 00:55:38;;;;;;;;;41.25;34.00;;;;;;;;5057265;28;45342;-67
2022/12/06 00:58:03;;;;;;;;;33.00;30.75;;;;;;;;5047037;28;45703;-68
2022/12/06 01:00:28;;;;;;;;;27.75;26.50;;;;;;;;5051989;28;47127;-68
2022/12/06 01:02:54;;;;;;;;;46.50;35.00;;;;;;;;5055734;28;45739;-69
2022/12/06 01:05:19;;;;;;;;;43.25;36.50;;;;;;;;5055543;28;45701;-67
2022/12/06 01:07:44;;;;;;;;;37.75;31.00;;;;;;;;5045141;28;47239;-68
2022/12/06 01:10:10;;;;;;;;;38.25;32.00;;;;;;;;5051290;28;45379;-67
2022/12/06 01:12:35;;;;;;;;;39.00;32.50;;;;;;;;5055659;28;45614;-67
2022/12/06 01:15:00;;;;;;;;;37.25;24.75;;;;;;;;5051108;28;45742;-68
2022/12/06 01:17:25;;;;;;;;;46.25;36.50;;;;;;;;5052342;28;45628;-67
2022/12/06 01:19:51;;;;;;;;;44.25;32.25;;;;;;;;5055190;28;46201;-66
2022/12/06 01:22:16;;;;;;;;;45.75;36.00;;;;;;;;5061011;28;45707;-67
2022/12/06 01:24:41;;;;;;;;;42.50;32.75;;;;;;;;5061809;28;45773;-68
2022/12/06 01:27:06;;;;;;;;;33.50;31.00;;;;;;;;5051330;28;45492;-66
2022/12/06 01:29:32;;;;;;;;;44.00;35.50;;;;;;;;5045953;28;46128;-67
2022/12/06 01:31:57;;;;;;;;;46.75;35.50;;;;;;;;5043018;28;45460;-68
2022/12/06 01:34:22;;;;;;;;;34.25;30.50;;;;;;;;5039919;28;45378;-68
2022/12/06 01:36:48;;;;;;;;;39.00;33.25;;;;;;;;5054305;28;45837;-68
2022/12/06 01:39:13;;;;;;;;;40.75;32.75;;;;;;;;5054878;28;45840;-67
2022/12/06 01:41:39;;;;;;;;;47.75;34.75;;;;;;;;5048348;28;45406;-67
2022/12/06 01:44:05;;;;;;;;;42.75;31.00;;;;;;;;5052376;28;45298;-67
2022/12/06 01:46:38;;;;;;;;;49.50;35.25;;;;;;;;5044779;28;45273;-68
2022/12/06 01:49:06;;;;;;;;;48.00;36.00;;;;;;;;5053828;28;45497;-66
2022/12/06 01:51:31;;;;;;;;;48.50;34.25;;;;;;;;5054475;28;45412;-68
2022/12/06 01:53:58;;;;;;;;;53.50;38.25;;;;;;;;5059124;28;45730;-67
2022/12/06 01:56:23;;;;;;;;;52.25;35.00;;;;;;;;5045996;28;46148;-68
2022/12/06 01:58:52;;;;;;;;;39.00;33.75;;;;;;;;5036010;28;47184;-68
2022/12/06 02:01:17;;;;;;;;;38.75;34.00;;;;;;;;5036563;28;45670;-68
2022/12/06 02:03:43;;;;;;;;;39.25;35.00;;;;;;;;5054276;28;45386;-67
2022/12/06 02:06:08;;;;;;;;;50.75;38.75;;;;;;;;5035229;28;46925;-67
2022/12/06 02:08:34;;;;;;;;;53.00;39.50;;;;;;;;5050635;28;46259;-68
2022/12/06 02:11:01;;;;;;;;;50.25;35.25;;;;;;;;5047363;28;45270;-68
2022/12/06 02:13:27;;;;;;;;;44.00;35.25;;;;;;;;5036790;28;45495;-69
2022/12/06 02:15:57;;;;;;;;;55.00;40.75;;;;;;;;5036215;28;47211;-66
2022/12/06 02:18:26;;;;;;;;;51.50;39.25;;;;;;;;5054204;28;45425;-68
2022/12/06 02:21:00;;;;;;;;;44.50;31.75;;;;;;;;5041437;28;45738;-68
2022/12/06 02:23:28;;;;;;;;;44.00;37.00;;;;;;;;5054452;28;45295;-68
2022/12/06 02:26:15;;;;;;;;;46.25;36.00;;;;;;;;5036410;28;46412;-68
2022/12/06 02:28:40;;;;;;;;;53.25;37.75;;;;;;;;5048441;28;46225;-68
2022/12/06 02:31:08;;;;;;;;;51.50;36.75;;;;;;;;5043472;28;45448;-68
2022/12/06 02:33:44;;;;;;;;;46.75;37.50;;;;;;;;5049750;28;45612;-68
2022/12/06 02:36:18;;;;;;;;;54.75;38.25;;;;;;;;5055754;28;45331;-68
2022/12/06 02:38:50;;;;;;;;;48.50;38.00;;;;;;;;5041472;28;47289;-68
2022/12/06 02:41:30;;;;;;;;;44.50;37.25;;;;;;;;5053807;28;45464;-69
2022/12/06 02:43:59;;;;;;;;;50.25;36.75;;;;;;;;5035514;28;45764;-68
2022/12/06 02:46:28;;;;;;;;;39.00;34.50;;;;;;;;5052612;28;45500;-67
2022/12/06 02:48:55;;;;;;;;;51.75;39.25;;;;;;;;5045293;28;46682;-67
2022/12/06 02:51:21;;;;;;;;;52.50;38.75;;;;;;;;5055757;28;45440;-67
2022/12/06 02:53:48;;;;;;;;;42.50;34.50;;;;;;;;5056332;28;45405;-66
2022/12/06 02:56:15;;;;;;;;;48.00;36.50;;;;;;;;5053443;28;45785;-67
2022/12/06 02:58:40;;;;;;;;;46.75;38.00;;;;;;;;5035610;28;48391;-67
2022/12/06 03:01:11;;;;;;;;;55.25;38.25;;;;;;;;5052951;28;45417;-66
2022/12/06 03:03:42;;;;;;;;;51.00;37.00;;;;;;;;5053479;28;45356;-67
2022/12/06 03:06:15;;;;;;;;;50.50;38.50;;;;;;;;5055413;28;45460;-67
2022/12/06 03:08:41;;;;;;;;;39.25;31.75;;;;;;;;5069790;28;45542;-68
2022/12/06 03:11:06;;;;;;;;;40.25;35.75;;;;;;;;5042230;28;45789;-66
2022/12/06 03:13:50;;;;;;;;;45.00;35.00;;;;;;;;5063125;28;45698;-66
2022/12/06 03:16:41;;;;;;;;;39.50;32.75;;;;;;;;5046519;28;45788;-67
2022/12/06 03:19:13;;;;;;;;;44.50;34.00;;;;;;;;5026432;28;46131;-67
2022/12/06 03:21:58;;;;;;;;;53.75;36.75;;;;;;;;5052086;28;45669;-67
2022/12/06 03:24:24;;;;;;;;;45.25;35.25;;;;;;;;5050120;28;45738;-66
2022/12/06 03:26:50;;;;;;;;;43.75;34.00;;;;;;;;5028674;28;47055;-67
2022/12/06 03:29:17;;;;;;;;;39.25;33.25;;;;;;;;5055037;28;46429;-68
2022/12/06 03:31:44;;;;;;;;;47.75;36.50;;;;;;;;5061042;28;45786;-67
2022/12/06 03:34:15;;;;;;;;;49.00;33.67;;;;;;;;5060834;28;45744;-67
2022/12/06 03:36:42;;;;;;;;;51.00;36.00;;;;;;;;5042750;28;45437;-67
2022/12/06 03:39:08;;;;;;;;;46.00;32.25;;;;;;;;5065435;28;46115;-67
2022/12/06 03:41:42;;;;;;;;;35.00;32.25;;;;;;;;5063512;28;45719;-67
2022/12/06 03:44:07;;;;;;;;;34.00;32.50;;;;;;;;5042895;28;45824;-66
2022/12/06 03:46:35;;;;;;;;;34.67;31.00;;;;;;;;5058278;28;45448;-66
2022/12/06 03:49:03;;;;;;;;;39.33;32.33;;;;;;;;5060852;28;45664;-67
2022/12/06 03:51:30;;;;;;;;;45.00;32.67;;;;;;;;5053821;28;45555;-66
2022/12/06 03:53:57;;;;;;;;;38.00;30.00;;;;;;;;5055430;28;45306;-67
2022/12/06 03:56:22;;;;;;;;;35.67;30.33;;;;;;;;5051656;28;46378;-66
2022/12/06 03:58:47;;;;;;;;;44.75;33.75;;;;;;;;5048430;28;46081;-65
2022/12/06 04:01:13;;;;;;;;;41.33;34.33;;;;;;;;5037271;28;45717;-69
2022/12/06 04:03:38;;;;;;;;;38.00;29.67;;;;;;;;5053016;28;45694;-68
2022/12/06 04:06:05;;;;;;;;;35.33;29.33;;;;;;;;5048087;28;45401;-69
2022/12/06 04:08:30;;;;;;;;;43.25;33.50;;;;;;;;5047309;28;46154;-69
2022/12/06 04:10:56;;;;;;;;;43.75;35.00;;;;;;;;5047367;28;45688;-68
2022/12/06 04:13:21;;;;;;;;;32.33;30.67;;;;;;;;5040594;28;45648;-67
2022/12/06 04:15:47;;;;;;;;;35.33;26.33;;;;;;;;5051825;28;45475;-66
2022/12/06 04:18:13;;;;;;;;;42.33;33.67;;;;;;;;5040147;28;45473;-67
2022/12/06 04:23:22;;;;;;;;;31.33;27.33;;;;;;;;5052749;28;45903;-67
2022/12/06 04:25:48;;;;;;;;;33.33;23.00;;;;;;;;5034719;28;47152;-66
2022/12/06 04:39:09;;;;;;;;;42.00;35.00;;;;;;;;5056219;28;45833;-67
2022/12/06 04:44:18;;;;;;;;;39.00;30.25;;;;;;;;5045012;28;45633;-67
2022/12/06 04:49:28;;;;;;;;;47.67;33.67;;;;;;;;5055379;22;45714;-75
2022/12/06 04:51:54;;;;;;;;;35.25;32.75;;;;;;;;5027036;28;45347;-74
2022/12/06 04:54:20;;;;;;;;;48.25;35.75;;;;;;;;5010702;28;45651;-74
2022/12/06 04:56:45;;;;;;;;;38.75;35.00;;;;;;;;5006328;28;45537;-75
2022/12/06 04:59:10;;;;;;;;;35.00;27.67;;;;;;;;5009590;28;45407;-74
2022/12/06 05:01:35;;;;;;;;;42.67;29.00;;;;;;;;5018725;28;45400;-76
2022/12/06 05:04:00;;;;;;;;;47.25;37.75;;;;;;;;5018214;28;45352;-76
2022/12/06 05:06:26;;;;;;;;;45.25;33.25;;;;;;;;5011188;28;45262;-74
2022/12/06 05:08:51;;;;;;;;;33.33;31.00;;;;;;;;5014881;28;47132;-76
2022/12/06 05:11:16;;;;;;;;;33.00;28.00;;;;;;;;5029446;28;45866;-74
2022/12/06 05:13:41;;;;;;;;;39.67;32.33;;;;;;;;5007369;28;45865;-74
2022/12/06 05:16:07;;;;;;;;;47.00;33.50;;;;;;;;5010417;28;46797;-74
2022/12/06 05:18:33;;;;;;;;;38.33;30.33;;;;;;;;5017034;28;45465;-75
2022/12/06 05:21:09;;;;;;;;;71.00;51.75;;;;;;;;5025038;28;45358;-75
2022/12/06 05:23:35;;;;;;;;;45.50;34.00;;;;;;;;5006969;28;45444;-75
2022/12/06 05:26:02;;;;;;;;;34.75;29.25;;;;;;;;5017790;28;45672;-72
2022/12/06 05:28:27;;;;;;;;;42.75;36.25;;;;;;;;5005020;28;46985;-75
2022/12/06 05:30:52;;;;;;;;;36.00;28.00;;;;;;;;5019604;28;45734;-75
2022/12/06 05:33:18;;;;;;;;;33.75;28.25;;;;;;;;5000278;28;46454;-76
2022/12/06 05:35:43;;;;;;;;;48.75;34.25;;;;;;;;5024972;28;45532;-74
2022/12/06 05:38:08;;;;;;;;;38.67;33.33;;;;;;;;5022270;28;45466;-75
2022/12/06 05:40:33;;;;;;;;;40.33;34.00;;;;;;;;5020735;28;45372;-74
2022/12/06 05:42:59;;;;;;;;;44.50;34.25;;;;;;;;5012188;28;45935;-74
2022/12/06 05:45:24;;;;;;;;;46.33;34.00;;;;;;;;5025662;28;45838;-76
2022/12/06 05:47:49;;;;;;;;;40.33;35.00;;;;;;;;5010974;28;45794;-77
2022/12/06 05:50:15;;;;;;;;;37.75;33.75;;;;;;;;5011231;28;45386;-76
2022/12/06 05:52:40;;;;;;;;;47.00;30.67;;;;;;;;5015897;28;45817;-73
2022/12/06 05:55:05;;;;;;;;;46.33;36.67;;;;;;;;5012276;28;45456;-74
2022/12/06 05:57:31;;;;;;;;;39.67;33.00;;;;;;;;5027089;28;46036;-74
2022/12/06 05:59:56;;;;;;;;;39.67;32.33;;;;;;;;5021708;28;45542;-73
2022/12/06 06:02:21;;;;;;;;;44.00;35.00;;;;;;;;5018137;28;45507;-72
2022/12/06 06:04:46;;;;;;;;;46.00;34.00;;;;;;;;4992639;28;45731;-73
2022/12/06 06:07:12;;;;;;;;;42.67;34.67;;;;;;;;5013452;28;45801;-69
2022/12/06 06:09:37;;;;;;;;;31.00;30.67;;;;;;;;5014260;28;45465;-72
2022/12/06 06:12:02;;;;;;;;;40.25;34.00;;;;;;;;5014891;28;45635;-75
2022/12/06 06:14:27;;;;;;;;;44.25;35.50;;;;;;;;5008772;28;45686;-76
2022/12/06 06:16:53;;;;;;;;;43.50;36.75;;;;;;;;4996881;28;47746;-77
2022/12/06 06:19:19;;;;;;;;;51.00;37.00;;;;;;;;5026085;28;45784;-76
2022/12/06 06:21:44;;;;;;;;;41.50;35.25;;;;;;;;5018706;28;45453;-74
2022/12/06 06:24:09;;;;;;;;;46.50;35.25;;;;;;;;5032263;28;45407;-73
2022/12/06 06:26:34;;;;;;;;;50.50;36.00;;;;;;;;4993170;28;46932;-74
2022/12/06 06:29:00;;;;;;;;;45.67;33.33;;;;;;;;5026556;28;45709;-74
2022/12/06 06:31:25;;;;;;;;;45.67;35.00;;;;;;;;5019167;28;45753;-75
2022/12/06 06:33:50;;;;;;;;;44.25;35.50;;;;;;;;5033241;28;45554;-75
2022/12/06 06:36:15;;;;;;;;;38.00;32.75;;;;;;;;5019071;28;45863;-77
2022/12/06 06:38:41;;;;;;;;;42.00;35.33;;;;;;;;5018006;28;45478;-77
2022/12/06 06:41:06;;;;;;;;;49.67;36.33;;;;;;;;5005728;28;45462;-77
2022/12/06 06:43:32;;;;;;;;;41.67;34.00;;;;;;;;5028721;28;45551;-77
2022/12/06 06:45:59;;;;;;;;;49.00;36.75;;;;;;;;5017324;28;45441;-76
2022/12/06 06:48:25;;;;;;;;;39.67;33.67;;;;;;;;5026907;28;45818;-75
2022/12/06 06:50:50;;;;;;;;;48.75;35.75;;;;;;;;5016149;28;45632;-75
2022/12/06 06:53:16;;;;;;;;;44.67;32.67;;;;;;;;5016273;28;45756;-76
2022/12/06 06:55:45;;;;;;;;;50.75;36.00;;;;;;;;5004823;28;46673;-76
2022/12/06 06:58:13;;;;;;;;;51.67;35.33;;;;;;;;5020936;28;45803;-77
2022/12/06 07:00:38;;;;;;;;;49.50;36.00;;;;;;;;5006892;28;45918;-78
2022/12/06 07:03:03;;;;;;;;;41.75;35.00;;;;;;;;5018148;28;45417;-76
2022/12/06 07:05:29;;;;;;;;;53.50;35.75;;;;;;;;5003352;28;46204;-75
2022/12/06 07:07:56;;;;;;;;;47.00;36.25;;;;;;;;5019684;28;45539;-75
2022/12/06 07:10:24;;;;;;;;;45.00;33.00;;;;;;;;5018111;28;45394;-76
2022/12/06 07:12:49;;;;;;;;;50.50;39.50;;;;;;;;5013150;28;45472;-76
2022/12/06 07:15:15;;;;;;;;;50.25;36.25;;;;;;;;4998372;28;47594;-75
2022/12/06 07:17:40;;;;;;;;;43.25;35.25;;;;;;;;5020593;28;45468;-76
2022/12/06 07:20:06;;;;;;;;;45.75;34.50;;;;;;;;5018036;28;45749;-77
2022/12/06 07:22:31;;;;;;;;;41.00;33.25;;;;;;;;5019361;28;45451;-74
2022/12/06 07:24:56;;;;;;;;;45.75;35.50;;;;;;;;5011069;28;45600;-76
2022/12/06 07:27:22;;;;;;;;;49.00;36.50;;;;;;;;5004154;28;45666;-77
2022/12/06 07:29:47;;;;;;;;;48.00;34.75;;;;;;;;5009961;28;45713;-76
2022/12/06 07:32:12;;;;;;;;;47.00;34.50;;;;;;;;5016998;28;45306;-74
2022/12/06 07:34:38;;;;;;;;;47.75;36.25;;;;;;;;5022964;28;45648;-75
2022/12/06 07:37:06;;;;;;;;;50.75;38.75;;;;;;;;5013227;28;45313;-74
2022/12/06 07:39:31;;;;;;;;;51.75;39.00;;;;;;;;5013548;28;46006;-75
2022/12/06 07:47:25;;;;;;;;;45.00;37.00;;;;;;;;5011535;28;45335;-76
2022/12/06 07:49:53;;;;;;;;;41.33;35.33;;;;;;;;5027755;28;45455;-74
2022/12/06 07:52:19;;;;;;;;;52.25;36.25;;;;;;;;4996211;28;46042;-74
2022/12/06 07:54:44;;;;;;;;;55.25;42.00;;;;;;;;5023160;28;46484;-77
2022/12/06 07:57:10;;;;;;;;;43.00;33.00;;;;;;;;5006864;28;45654;-74
2022/12/06 07:59:35;;;;;;;;;49.25;36.00;;;;;;;;5019804;28;45378;-75
2022/12/06 08:02:00;;;;;;;;;50.00;38.50;;;;;;;;5005299;28;45504;-75
2022/12/06 08:04:25;;;;;;;;;51.50;36.50;;;;;;;;5006238;28;46525;-76
2022/12/06 08:06:51;;;;;;;;;50.00;37.00;;;;;;;;4987457;28;45352;-75
2022/12/06 08:09:16;;;;;;;;;57.25;40.25;;;;;;;;5017810;28;45341;-75
2022/12/06 08:11:42;;;;;;;;;51.00;40.00;;;;;;;;5027674;28;45491;-75
2022/12/06 08:14:08;;;;;;;;;58.50;39.50;;;;;;;;5019426;28;46959;-74
2022/12/06 08:16:33;;;;;;;;;54.25;40.25;;;;;;;;5015897;28;45349;-75
2022/12/06 08:18:58;;;;;;;;;45.50;36.00;;;;;;;;5026362;28;45285;-73
2022/12/06 08:21:25;;;;;;;;;56.50;40.50;;;;;;;;5006264;28;45534;-74
2022/12/06 08:23:51;;;;;;;;;51.75;39.75;;;;;;;;5025980;28;45417;-75
2022/12/06 08:26:17;;;;;;;;;49.00;39.00;;;;;;;;5033161;28;45564;-76
2022/12/06 08:28:43;;;;;;;;;58.00;45.00;;;;;;;;5024264;28;45394;-75
2022/12/06 08:31:12;;;;;;;;;56.25;43.75;;;;;;;;5025713;28;45671;-76
2022/12/06 08:33:38;;;;;;;;;49.50;40.25;;;;;;;;5014675;28;48401;-76
2022/12/06 08:36:07;;;;;;;;;51.25;37.75;;;;;;;;5034715;28;45802;-75
2022/12/06 08:38:33;;;;;;;;;49.75;38.00;;;;;;;;5033763;28;45449;-76
2022/12/06 08:40:58;;;;;;;;;55.75;37.50;;;;;;;;5017188;28;45389;-75
2022/12/06 08:43:23;;;;;;;;;43.75;35.75;;;;;;;;5031302;28;45700;-76
2022/12/06 08:45:50;;;;;;;;;54.00;37.75;;;;;;;;5022943;28;45280;-76
2022/12/06 08:48:15;;;;;;;;;48.75;39.00;;;;;;;;5010465;28;45308;-76
2022/12/06 08:50:40;;;;;;;;;51.25;39.75;;;;;;;;5004949;28;45406;-77
2022/12/06 08:53:06;;;;;;;;;50.25;38.75;;;;;;;;5022412;28;45710;-75
2022/12/06 08:55:31;;;;;;;;;49.25;38.25;;;;;;;;5009885;28;45495;-75
2022/12/06 08:57:56;;;;;;;;;55.75;40.25;;;;;;;;5032623;28;45830;-76
2022/12/06 09:00:22;;;;;;;;;48.50;38.25;;;;;;;;5034874;28;45493;-77
2022/12/06 09:02:47;;;;;;;;;49.33;36.67;;;;;;;;5006487;28;45770;-76
2022/12/06 09:05:12;;;;;;;;;46.50;37.00;;;;;;;;5016975;28;45632;-76
2022/12/06 09:07:37;;;;;;;;;61.00;43.50;;;;;;;;5020955;28;45806;-76
2022/12/06 09:10:04;;;;;;;;;50.00;38.00;;;;;;;;4997585;28;46377;-75
2022/12/06 09:12:29;;;;;;;;;49.75;38.50;;;;;;;;5020207;28;46594;-75
2022/12/06 09:14:55;;;;;;;;;55.00;39.00;;;;;;;;5014835;28;45436;-77
2022/12/06 09:17:20;;;;;;;;;54.00;37.75;;;;;;;;5002955;28;45429;-76
2022/12/06 09:19:45;;;;;;;;;57.00;44.00;;;;;;;;5017477;28;45357;-75
2022/12/06 09:22:10;;;;;;;;;56.75;42.00;;;;;;;;5017457;28;45255;-76
2022/12/06 09:24:36;;;;;;;;;51.75;38.00;;;;;;;;4997044;28;45376;-76
2022/12/06 09:27:01;;;;;;;;;58.50;40.00;;;;;;;;5027963;28;45278;-75
2022/12/06 09:29:26;;;;;;;;;50.25;37.75;;;;;;;;5017357;28;45796;-76
2022/12/06 09:31:52;;;;;;;;;54.25;39.25;;;;;;;;5028155;28;45855;-74
2022/12/06 09:34:18;;;;;;;;;48.50;38.75;;;;;;;;5031869;28;45818;-75
2022/12/06 09:36:56;;;;;;;;;57.00;40.50;;;;;;;;5029054;28;45741;-74
2022/12/06 09:39:26;;;;;;;;;60.00;40.50;;;;;;;;5012714;28;45831;-76
2022/12/06 09:42:10;;;;;;;;;52.00;40.50;;;;;;;;5026043;28;46870;-76
2022/12/06 09:44:53;;;;;;;;;55.50;40.25;;;;;;;;5024772;28;45299;-75
2022/12/06 09:47:54;;;;;;;;;54.50;39.25;;;;;;;;5007972;28;45308;-74
2022/12/06 09:50:28;;;;;;;;;53.75;42.50;;;;;;;;4935955;28;45476;-76
2022/12/06 09:52:53;;;;;;;;;52.25;38.50;;;;;;;;4948712;28;45840;-76
2022/12/06 09:55:18;;;;;;;;;58.25;41.00;;;;;;;;4934123;28;45737;-77
2022/12/06 09:57:56;;;;;;;;;57.50;42.75;;;;;;;;4948916;28;45397;-74
2022/12/06 10:00:22;;;;;;;;;59.50;41.50;;;;;;;;5023969;28;45471;-75
2022/12/06 10:02:50;;;;;;;;;54.50;40.50;;;;;;;;5018689;28;45561;-74
2022/12/06 10:05:21;;;;;;;;;58.25;44.75;;;;;;;;5013410;28;45390;-74
2022/12/06 10:07:50;;;;;;;;;47.50;37.75;;;;;;;;5026002;28;45488;-74
2022/12/06 10:10:18;;;;;;;;;45.25;35.50;;;;;;;;5011421;28;46729;-75
2022/12/06 10:12:43;;;;;;;;;53.50;42.00;;;;;;;;5024100;28;45753;-76
2022/12/06 10:15:09;;;;;;;;;49.50;39.00;;;;;;;;5017330;28;45331;-78
2022/12/06 10:17:46;;;;;;;;;59.25;41.25;;;;;;;;5014258;28;45394;-76
2022/12/06 10:20:12;;;;;;;;;55.25;40.50;;;;;;;;5015921;28;45390;-75
2022/12/06 10:22:40;;;;;;;;;59.00;42.25;;;;;;;;4998249;28;45555;-75
2022/12/06 10:25:05;;;;;;;;;77.00;56.75;;;;;;;;5016713;28;45466;-75
2022/12/06 10:27:34;;;;;;;;;54.50;42.50;;;;;;;;5016190;28;45480;-77
2022/12/06 10:30:09;;;;;;;;;53.50;39.50;;;;;;;;5014088;28;45353;-75
2022/12/06 10:32:40;;;;;;;;;51.75;41.00;;;;;;;;5014006;28;46097;-75
2022/12/06 10:35:24;;;;;;;;;60.75;42.00;;;;;;;;5021492;28;45350;-75
2022/12/06 10:37:50;;;;;;;;;58.25;42.00;;;;;;;;5017224;28;45830;-77
2022/12/06 10:40:19;;;;;;;;;56.50;43.75;;;;;;;;5024623;28;46463;-74
2022/12/06 10:43:03;;;;;;;;;61.25;40.75;;;;;;;;5020739;28;46160;-76
2022/12/06 10:48:32;;;;;;;;;59.50;45.00;;;;;;;;5015132;28;45572;-76
2022/12/06 10:51:03;;;;;;;;;55.75;40.00;;;;;;;;4946659;28;45639;-75
2022/12/06 10:53:31;;;;;;;;;54.75;43.00;;;;;;;;5020301;28;45612;-78
2022/12/06 10:56:00;;;;;;;;;55.00;43.50;;;;;;;;5027894;28;45299;-76
2022/12/06 10:58:31;;;;;;;;;61.25;45.75;;;;;;;;5010596;28;45517;-75
2022/12/06 11:01:23;;;;;;;;;60.25;44.75;;;;;;;;5015163;28;46831;-76
2022/12/06 11:03:48;;;;;;;;;63.50;41.25;;;;;;;;4983721;28;47390;-77
2022/12/06 11:06:26;;;;;;;;;59.00;42.50;;;;;;;;5015111;28;45748;-77
2022/12/06 11:08:54;;;;;;;;;57.75;43.25;;;;;;;;5015925;28;45409;-77
2022/12/06 11:11:25;;;;;;;;;57.75;43.25;;;;;;;;5004448;28;45565;-76
2022/12/06 11:13:58;;;;;;;;;56.50;43.50;;;;;;;;5017274;28;45921;-77
2022/12/06 11:16:25;;;;;;;;;59.00;42.50;;;;;;;;5017989;28;45663;-77
2022/12/06 11:18:54;;;;;;;;;53.75;44.00;;;;;;;;5018810;28;46369;-77
2022/12/06 11:21:23;;;;;;;;;58.75;44.25;;;;;;;;5007878;28;45747;-75
2022/12/06 11:24:06;;;;;;;;;58.00;44.00;;;;;;;;5009145;28;45398;-77
2022/12/06 11:26:35;;;;;;;;;57.00;42.00;;;;;;;;5010309;28;45254;-76
2022/12/06 11:29:05;;;;;;;;;66.25;48.75;;;;;;;;4997420;28;45603;-78
2022/12/06 11:31:36;;;;;;;;;58.25;44.00;;;;;;;;4999272;28;45543;-76
2022/12/06 11:34:03;;;;;;;;;61.00;45.00;;;;;;;;5019067;28;46152;-77
2022/12/06 11:36:30;;;;;;;;;57.00;40.50;;;;;;;;5015496;28;45489;-75
2022/12/06 11:38:55;;;;;;;;;59.75;42.25;;;;;;;;5019245;28;45829;-74
2022/12/06 11:41:26;;;;;;;;;54.25;41.50;;;;;;;;5015458;28;45902;-78
2022/12/06 11:43:52;;;;;;;;;53.25;41.00;;;;;;;;5009237;28;45731;-76
2022/12/06 11:46:19;;;;;;;;;58.00;42.50;;;;;;;;5014755;28;45442;-76
2022/12/06 11:48:44;;;;;;;;;57.75;43.75;;;;;;;;5010024;28;45339;-75
2022/12/06 11:51:14;;;;;;;;;56.25;45.00;;;;;;;;5027872;28;45643;-76
2022/12/06 11:53:52;;;;;;;;;62.00;44.75;;;;;;;;5015380;28;46036;-77
2022/12/06 11:56:49;;;;;;;;;59.75;45.75;;;;;;;;5008343;28;45485;-77
2022/12/06 11:59:33;;;;;;;;;60.25;47.25;;;;;;;;4976678;28;45398;-77
2022/12/06 12:02:02;;;;;;;;;66.75;47.00;;;;;;;;5007019;28;45949;-78
2022/12/06 12:04:45;;;;;;;;;64.25;48.50;;;;;;;;5018732;28;46803;-76
2022/12/06 12:07:16;;;;;;;;;72.50;51.50;;;;;;;;5009632;28;45491;-75
2022/12/06 12:09:47;;;;;;;;;67.75;48.25;;;;;;;;5010351;28;45354;-75
2022/12/06 12:12:17;;;;;;;;;69.25;49.00;;;;;;;;5014497;28;45973;-74
2022/12/06 12:14:43;;;;;;;;;60.75;46.75;;;;;;;;5024936;28;46488;-74
2022/12/06 12:17:15;;;;;;;;;65.50;47.00;;;;;;;;5013579;28;45879;-75
2022/12/06 12:19:44;;;;;;;;;57.75;45.25;;;;;;;;5026116;28;45819;-74
2022/12/06 12:22:15;;;;;;;;;60.50;46.00;;;;;;;;5007415;28;45597;-75
2022/12/06 12:24:43;;;;;;;;;49.25;40.00;;;;;;;;5008876;28;46692;-74
2022/12/06 12:27:28;;;;;;;;;52.25;39.50;;;;;;;;4992083;28;45850;-74
2022/12/06 12:30:12;;;;;;;;;61.00;45.00;;;;;;;;5013139;28;45435;-74
2022/12/06 12:32:37;;;;;;;;;65.25;48.50;;;;;;;;5015476;28;45867;-74
2022/12/06 12:35:29;;;;;;;;;62.75;48.00;;;;;;;;5013398;28;46843;-74
2022/12/06 12:37:59;;;;;;;;;60.25;44.25;;;;;;;;5009511;28;45531;-71
2022/12/06 12:40:29;;;;;;;;;56.75;42.25;;;;;;;;5010374;28;45708;-72
2022/12/06 12:42:59;;;;;;;;;58.25;42.25;;;;;;;;5020304;28;45464;-72
2022/12/06 12:45:26;;;;;;;;;57.50;42.50;;;;;;;;5018041;28;46058;-72
2022/12/06 12:48:02;;;;;;;;;56.00;38.75;;;;;;;;5019495;28;45826;-72
2022/12/06 12:50:29;;;;;;;;;58.75;44.50;;;;;;;;5011015;28;45734;-71
2022/12/06 12:52:54;;;;;;;;;56.00;41.75;;;;;;;;5026810;28;45820;-73
2022/12/06 12:55:30;;;;;;;;;62.50;45.00;;;;;;;;5022949;28;45385;-71
2022/12/06 12:57:56;;;;;;;;;54.75;40.50;;;;;;;;5012694;28;45822;-71
2022/12/06 13:00:24;;;;;;;;;53.00;38.67;;;;;;;;5013582;28;45471;-71
2022/12/06 13:02:54;;;;;;;;;53.25;38.25;;;;;;;;4996552;28;45835;-71
2022/12/06 13:05:21;;;;;;;;;58.75;44.50;;;;;;;;5014289;28;45375;-71
2022/12/06 13:07:48;;;;;;;;;51.00;37.75;;;;;;;;5016427;28;45831;-72
2022/12/06 13:10:32;;;;;;;;;53.25;38.00;;;;;;;;5015783;28;45594;-70
2022/12/06 13:13:01;;;;;;;;;51.75;38.00;;;;;;;;5017100;28;45662;-70
2022/12/06 13:15:35;;;;;;;;;57.50;43.25;;;;;;;;5022296;28;48224;-73
2022/12/06 13:18:12;;;;;;;;;53.75;39.25;;;;;;;;5008117;28;45446;-74
2022/12/06 13:20:39;;;;;;;;;49.00;37.67;;;;;;;;5008870;28;45526;-72
2022/12/06 13:23:25;;;;;;;;;51.25;39.50;;;;;;;;5015211;28;45414;-73
2022/12/06 13:26:14;;;;;;;;;54.33;38.33;;;;;;;;4992719;28;47337;-72
2022/12/06 13:28:42;;;;;;;;;47.33;37.00;;;;;;;;4995604;28;45806;-74
2022/12/06 13:31:12;;;;;;;;;48.25;38.00;;;;;;;;5016554;28;45394;-73
2022/12/06 13:33:42;;;;;;;;;51.00;36.00;;;;;;;;5023499;28;45466;-73
2022/12/06 13:36:12;;;;;;;;;40.00;35.00;;;;;;;;5017575;28;46351;-71
2022/12/06 13:38:38;;;;;;;;;38.00;32.33;;;;;;;;5024531;28;45822;-72
2022/12/06 13:41:05;;;;;;;;;36.00;26.00;;;;;;;;5012799;28;45879;-72
2022/12/06 13:43:30;;;;;;;;;35.67;26.00;;;;;;;;5028378;28;45830;-73
2022/12/06 13:46:07;;;;;;;;;33.33;27.67;;;;;;;;5012381;28;45429;-73
2022/12/06 13:48:36;;;;;;;;;34.33;29.67;;;;;;;;5004860;28;45944;-71
2022/12/06 13:51:08;;;;;;;;;29.33;27.33;;;;;;;;5011926;28;45529;-72
2022/12/06 13:53:53;;;;;;;;;25.67;24.00;;;;;;;;5020503;28;45795;-72
2022/12/06 13:56:27;;;;;;;;;28.33;24.00;;;;;;;;5013360;28;45688;-71
2022/12/06 13:58:53;;;;;;;;;29.00;24.00;;;;;;;;5011730;28;45856;-71
2022/12/06 14:01:37;;;;;;;;;32.00;29.00;;;;;;;;5011706;28;45883;-72
2022/12/06 14:04:22;;;;;;;;;32.33;25.00;;;;;;;;5011570;28;45918;-69
2022/12/06 14:06:48;;;;;;;;;29.00;24.00;;;;;;;;5012075;28;45943;-71
2022/12/06 14:09:14;;;;;;;;;41.67;29.00;;;;;;;;5017212;28;45490;-71
2022/12/06 14:11:39;;;;;;;;;33.67;30.00;;;;;;;;5016868;28;45796;-71
2022/12/06 14:14:09;;;;;;;;;39.67;29.67;;;;;;;;5020976;28;45895;-71
2022/12/06 14:16:37;;;;;;;;;32.67;30.33;;;;;;;;5013493;28;45560;-72
2022/12/06 14:19:22;;;;;;;;;32.33;27.33;;;;;;;;5024982;28;45914;-70
2022/12/06 14:21:54;;;;;;;;;27.67;24.67;;;;;;;;5016676;28;45710;-71
2022/12/06 14:24:29;;;;;;;;;35.67;25.67;;;;;;;;5021291;28;46004;-71
2022/12/06 14:27:01;;;;;;;;;28.67;24.00;;;;;;;;5012349;28;46193;-71
2022/12/06 14:29:26;;;;;;;;;34.33;33.00;;;;;;;;4993985;28;46208;-71
2022/12/06 14:31:51;;;;;;;;;36.00;26.00;;;;;;;;5012367;28;46059;-72
2022/12/06 14:34:25;;;;;;;;;25.33;24.00;;;;;;;;5015263;28;45922;-72
2022/12/06 14:36:50;;;;;;;;;37.00;32.33;;;;;;;;5023207;28;46212;-71
2022/12/06 14:39:21;;;;;;;;;36.00;25.67;;;;;;;;4998644;28;45535;-73
2022/12/06 14:44:38;;;;;;;;;36.00;30.33;;;;;;;;5025296;28;45358;-71
2022/12/06 14:47:04;;;;;;;;;36.67;27.67;;;;;;;;5011385;28;45932;-72
2022/12/06 14:52:18;;;;;;;;;36.00;30.00;;;;;;;;5006267;28;45326;-73
2022/12/06 14:54:44;;;;;;;;;34.67;31.00;;;;;;;;5013394;28;45965;-74
2022/12/06 14:57:18;;;;;;;;;46.33;32.33;;;;;;;;5015750;28;46319;-72